ACF weather

Brisbane Archerfield Airport
Brisbane, Queensland, Australia

Public forecast

Using degrees Celsius for public forecast. Weather courtesy of forecast.io.

METAR (pilot weather report)

Closest report is Brisbane International Airport, 12.6 nm (23.3 km) NNE. Retrieved 2017/05/23 16:30 UTC (12 minutes ago):

YBBN 231630Z 00000KT 9999 MIFG FEW016 16/15 Q1018 NOSIG

TAF (pilot weather forecast)

Closest forecast is Brisbane International Airport, 12.6 nm (23.3 km) NNE. Retrieved 2017/05/23 12:38 UTC (4 hours ago):

TAF YBBN 231108Z 2312/2418 21006KT 9999 MIFG FEW015 FM240000 27008KT 9999 FEW020 FM240200 02008KT CAVOK FM241200 29005KT CAVOK FM241500 23005KT CAVOK PROB30 2318/2322 0500 FG